createdAt,value
2019-05-29T00:00:48.124Z,52.90
2019-05-29T00:03:18.641Z,52.80
2019-05-29T00:05:48.343Z,52.80
2019-05-29T00:08:18.541Z,52.60
2019-05-29T00:10:48.149Z,52.70
2019-05-29T00:13:18.504Z,52.50
2019-05-29T00:15:58.955Z,52.40
2019-05-29T00:18:32.600Z,52.50
2019-05-29T00:21:02.171Z,52.40
2019-05-29T00:23:31.695Z,52.40
2019-05-29T00:26:01.213Z,52.30
2019-05-29T00:28:30.730Z,52.20
2019-05-29T00:31:00.555Z,52.10
2019-05-29T00:33:30.250Z,52.20
2019-05-29T00:35:59.770Z,52.10
2019-05-29T00:38:29.319Z,52.10
2019-05-29T00:40:58.983Z,52.10
2019-05-29T00:43:28.514Z,52.10
2019-05-29T00:45:58.064Z,52.20
2019-05-29T00:48:27.595Z,52.10
2019-05-29T00:50:57.139Z,52.30
2019-05-29T00:53:27.097Z,52.30
2019-05-29T00:55:56.642Z,52.30
2019-05-29T00:58:26.450Z,52.40
2019-05-29T01:01:20.133Z,52.30
2019-05-29T01:03:49.774Z,52.30
2019-05-29T01:06:20.218Z,52.50
2019-05-29T01:08:50.222Z,52.50
2019-05-29T01:11:20.897Z,52.70
2019-05-29T01:13:50.515Z,52.80
2019-05-29T01:16:20.115Z,52.70
2019-05-29T01:18:49.686Z,52.70
2019-05-29T01:21:20.140Z,52.80
2019-05-29T01:23:50.064Z,52.80
2019-05-29T01:26:20.891Z,52.90
2019-05-29T01:28:50.469Z,53.00
2019-05-29T01:31:20.067Z,52.90
2019-05-29T01:33:49.614Z,53.00
2019-05-29T01:36:20.038Z,53.10
2019-05-29T01:38:49.596Z,53.30
2019-05-29T01:41:19.416Z,53.40
2019-05-29T01:43:49.667Z,53.40
2019-05-29T01:46:19.535Z,53.50
2019-05-29T01:48:49.202Z,53.40
2019-05-29T01:51:19.515Z,53.40
2019-05-29T01:53:49.167Z,53.30
2019-05-29T01:56:19.790Z,53.30
2019-05-29T01:58:49.968Z,53.30
2019-05-29T02:01:19.948Z,53.40
2019-05-29T02:03:50.729Z,53.30
2019-05-29T02:06:20.267Z,53.30
2019-05-29T02:08:49.818Z,53.40
2019-05-29T02:11:19.375Z,53.30
2019-05-29T02:13:49.253Z,54.00
2019-05-29T02:16:18.798Z,53.40
2019-05-29T02:18:48.680Z,53.60
2019-05-29T02:21:18.290Z,53.50
2019-05-29T02:23:48.406Z,54.10
2019-05-29T02:26:18.447Z,53.60
2019-05-29T02:28:47.996Z,53.60
2019-05-29T02:31:19.217Z,53.60
2019-05-29T02:33:59.526Z,53.60
2019-05-29T02:36:29.123Z,53.60
2019-05-29T02:38:58.654Z,53.80
2019-05-29T02:41:29.841Z,53.70
2019-05-29T02:43:59.847Z,53.70
2019-05-29T02:46:30.100Z,54.30
2019-05-29T02:49:00.744Z,53.60
2019-05-29T02:51:30.521Z,53.60
2019-05-29T02:54:00.466Z,53.60
2019-05-29T02:56:31.377Z,53.60
2019-05-29T02:59:00.945Z,53.50
2019-05-29T03:01:42.723Z,53.50
2019-05-29T03:04:13.008Z,53.40
2019-05-29T03:06:42.595Z,53.40
2019-05-29T03:09:12.151Z,53.30
2019-05-29T03:11:41.689Z,53.30
2019-05-29T03:14:11.218Z,53.30
2019-05-29T03:16:40.742Z,53.40
2019-05-29T03:19:10.294Z,53.40
2019-05-29T03:21:39.921Z,53.50
2019-05-29T03:24:09.544Z,53.40
2019-05-29T03:26:39.089Z,53.50
2019-05-29T03:29:08.978Z,53.50
2019-05-29T03:31:46.634Z,53.50
2019-05-29T03:34:10.018Z,53.60
2019-05-29T03:36:47.368Z,53.50
2019-05-29T03:39:10.771Z,53.60
2019-05-29T03:41:40.641Z,53.60
2019-05-29T03:44:10.601Z,53.90
2019-05-29T03:46:45.186Z,53.70
2019-05-29T03:49:11.730Z,53.70
2019-05-29T03:51:41.284Z,53.60
2019-05-29T03:54:11.198Z,53.60
2019-05-29T03:56:40.736Z,53.50
2019-05-29T03:59:10.779Z,53.60
2019-05-29T04:01:40.834Z,53.50
2019-05-29T04:04:10.517Z,53.50
2019-05-29T04:06:40.069Z,53.40
2019-05-29T04:09:09.604Z,53.40
2019-05-29T04:11:39.198Z,53.20
2019-05-29T04:14:08.800Z,53.20
2019-05-29T04:16:58.413Z,53.20
2019-05-29T04:19:10.548Z,53.10
2019-05-29T04:21:40.188Z,53.70
2019-05-29T04:24:09.703Z,53.00
2019-05-29T04:27:03.061Z,52.90
2019-05-29T04:29:33.849Z,52.80
2019-05-29T04:32:03.817Z,52.80
2019-05-29T04:34:35.663Z,52.70
2019-05-29T04:37:07.469Z,52.60
2019-05-29T04:39:36.936Z,52.60
2019-05-29T04:42:06.632Z,52.70
2019-05-29T04:44:38.226Z,52.80
2019-05-29T04:47:11.525Z,52.80
2019-05-29T04:49:39.901Z,52.90
2019-05-29T04:52:09.922Z,53.70
2019-05-29T04:54:40.216Z,53.20
2019-05-29T04:57:10.192Z,53.20
2019-05-29T04:59:40.278Z,53.30
2019-05-29T05:02:09.922Z,53.50
2019-05-29T05:04:39.511Z,53.50
2019-05-29T05:07:09.513Z,53.70
2019-05-29T05:09:39.644Z,53.80
2019-05-29T05:12:10.293Z,53.80
2019-05-29T05:14:41.037Z,53.20
2019-05-29T05:17:25.245Z,52.70
2019-05-29T05:19:42.411Z,52.10
2019-05-29T05:22:11.938Z,51.50
2019-05-29T05:24:43.919Z,51.10
2019-05-29T05:27:13.033Z,51.10
2019-05-29T05:29:42.764Z,51.00
2019-05-29T05:32:19.470Z,50.70
2019-05-29T05:34:49.650Z,50.40
2019-05-29T05:37:19.203Z,50.40
2019-05-29T05:39:49.244Z,50.50
2019-05-29T05:42:18.812Z,50.40
2019-05-29T05:44:48.362Z,50.30
2019-05-29T05:47:18.131Z,50.40
2019-05-29T05:49:47.711Z,50.00
2019-05-29T05:52:17.250Z,50.00
2019-05-29T05:54:47.830Z,49.80
2019-05-29T05:57:17.422Z,49.70
2019-05-29T05:59:47.931Z,49.40
2019-05-29T06:02:17.551Z,49.50
2019-05-29T06:04:47.082Z,49.20
2019-05-29T06:07:18.245Z,49.10
2019-05-29T06:09:47.791Z,49.10
2019-05-29T06:12:17.331Z,49.10
2019-05-29T06:14:46.879Z,48.90
2019-05-29T06:17:16.430Z,48.90
2019-05-29T06:19:46.046Z,48.90
2019-05-29T06:22:16.008Z,48.90
2019-05-29T06:24:45.652Z,48.90
2019-05-29T06:27:15.258Z,49.00
2019-05-29T06:29:45.066Z,49.00
2019-05-29T06:32:14.695Z,48.90
2019-05-29T06:34:44.327Z,48.90
2019-05-29T06:37:14.144Z,48.90
2019-05-29T06:39:44.006Z,48.90
2019-05-29T06:42:14.665Z,48.70
2019-05-29T06:44:47.577Z,48.70
2019-05-29T06:47:15.705Z,48.50
2019-05-29T06:49:46.297Z,48.30
2019-05-29T06:52:16.343Z,48.10
2019-05-29T06:54:46.219Z,48.00
2019-05-29T06:57:15.831Z,48.00
2019-05-29T06:59:45.469Z,48.00
2019-05-29T07:02:15.030Z,47.80
2019-05-29T07:04:44.685Z,47.90
2019-05-29T07:07:14.452Z,47.90
2019-05-29T07:09:45.054Z,47.90
2019-05-29T07:12:14.738Z,47.90
2019-05-29T07:14:44.558Z,48.20
2019-05-29T07:17:14.265Z,48.20
2019-05-29T07:19:57.555Z,47.70
2019-05-29T07:22:21.264Z,47.40
2019-05-29T07:24:50.807Z,47.50
2019-05-29T07:27:20.598Z,47.30
2019-05-29T07:29:50.282Z,47.10
2019-05-29T07:32:19.890Z,47.00
2019-05-29T07:35:02.394Z,46.70
2019-05-29T07:37:26.836Z,46.40
2019-05-29T07:39:57.530Z,46.40
2019-05-29T07:42:27.239Z,46.70
2019-05-29T07:44:56.995Z,46.60
2019-05-29T07:47:27.150Z,46.50
2019-05-29T07:49:57.089Z,46.40
2019-05-29T07:52:26.746Z,46.40
2019-05-29T07:55:08.428Z,46.00
2019-05-29T07:57:38.852Z,46.10
2019-05-29T08:00:09.065Z,46.40
2019-05-29T08:02:39.357Z,46.30
2019-05-29T08:05:09.717Z,46.10
2019-05-29T08:07:39.494Z,45.80
2019-05-29T08:10:09.756Z,45.40
2019-05-29T08:12:44.437Z,45.10
2019-05-29T08:15:10.722Z,44.90
2019-05-29T08:17:40.375Z,45.00
2019-05-29T08:20:10.015Z,45.00
2019-05-29T08:22:40.220Z,44.70
2019-05-29T08:25:10.150Z,44.70
2019-05-29T08:27:40.575Z,44.60
2019-05-29T08:30:10.299Z,44.40
2019-05-29T08:32:40.802Z,44.40
2019-05-29T08:35:10.550Z,44.10
2019-05-29T08:37:40.809Z,43.70
2019-05-29T08:40:10.458Z,43.80
2019-05-29T08:42:40.955Z,43.40
2019-05-29T08:45:10.722Z,43.40
2019-05-29T08:47:41.391Z,43.40
2019-05-29T08:50:18.629Z,43.20
2019-05-29T08:52:44.002Z,43.20
2019-05-29T08:55:14.024Z,43.30
2019-05-29T08:57:44.218Z,43.00
2019-05-29T09:00:14.020Z,43.20
2019-05-29T09:02:44.674Z,43.30
2019-05-29T09:05:14.867Z,43.50
2019-05-29T09:07:47.469Z,43.20
2019-05-29T09:10:17.057Z,43.30
2019-05-29T09:12:55.619Z,43.00
2019-05-29T09:15:21.178Z,43.00
2019-05-29T09:17:49.473Z,43.00
2019-05-29T09:20:34.095Z,43.10
2019-05-29T09:22:50.691Z,43.00
2019-05-29T09:25:21.178Z,43.00
2019-05-29T09:27:51.874Z,42.80
2019-05-29T09:30:21.833Z,43.10
2019-05-29T09:32:53.025Z,43.30
2019-05-29T09:35:24.929Z,43.30
2019-05-29T09:37:54.570Z,43.50
2019-05-29T09:40:25.012Z,43.60
2019-05-29T09:42:54.754Z,43.80
2019-05-29T09:45:25.486Z,44.10
2019-05-29T09:47:55.430Z,44.10
2019-05-29T09:50:25.985Z,44.40
2019-05-29T09:52:57.200Z,44.70
2019-05-29T09:55:27.717Z,44.70
2019-05-29T09:57:58.668Z,44.20
2019-05-29T10:00:28.638Z,44.20
2019-05-29T10:02:59.320Z,44.30
2019-05-29T10:05:29.081Z,44.10
2019-05-29T10:07:59.766Z,44.00
2019-05-29T10:10:29.779Z,43.60
2019-05-29T10:13:00.011Z,43.70
2019-05-29T10:15:29.774Z,43.70
2019-05-29T10:18:00.546Z,43.60
2019-05-29T10:20:30.402Z,43.40
2019-05-29T10:23:00.961Z,43.60
2019-05-29T10:25:30.587Z,44.30
2019-05-29T10:28:00.619Z,43.60
2019-05-29T10:30:52.771Z,43.70
2019-05-29T10:33:25.940Z,44.00
2019-05-29T10:35:55.730Z,43.70
2019-05-29T10:38:26.385Z,43.70
2019-05-29T10:41:05.945Z,43.80
2019-05-29T10:43:34.158Z,43.80
2019-05-29T10:45:58.765Z,44.40
2019-05-29T10:48:28.706Z,43.90
2019-05-29T10:50:58.424Z,43.70
2019-05-29T10:53:28.115Z,43.50
2019-05-29T10:55:58.203Z,43.50
2019-05-29T10:58:28.290Z,43.70
2019-05-29T11:01:00.395Z,43.80
2019-05-29T11:03:29.951Z,43.80
2019-05-29T11:05:59.483Z,43.70
2019-05-29T11:08:29.043Z,43.70
2019-05-29T11:10:58.913Z,43.40
2019-05-29T11:13:33.424Z,43.30
2019-05-29T11:16:05.489Z,43.00
2019-05-29T11:18:35.515Z,43.20
2019-05-29T11:21:05.478Z,43.10
2019-05-29T11:23:35.178Z,43.20
2019-05-29T11:26:05.566Z,43.40
2019-05-29T11:28:35.396Z,42.80
2019-05-29T11:31:05.870Z,42.80
2019-05-29T11:33:36.153Z,42.50
2019-05-29T11:36:12.240Z,42.10
2019-05-29T11:38:37.320Z,42.00
2019-05-29T11:41:25.192Z,41.20
2019-05-29T11:43:38.987Z,40.20
2019-05-29T11:46:10.355Z,40.00
2019-05-29T11:48:40.647Z,40.00
2019-05-29T11:51:10.874Z,39.50
2019-05-29T11:53:40.592Z,38.40
2019-05-29T11:56:10.143Z,37.50
2019-05-29T11:58:41.640Z,37.20
2019-05-29T12:01:11.166Z,36.40
2019-05-29T12:04:05.967Z,36.10
2019-05-29T12:06:13.052Z,35.90
2019-05-29T12:08:42.884Z,36.40
2019-05-29T12:11:12.462Z,36.60
2019-05-29T12:13:42.551Z,36.40
2019-05-29T12:16:12.430Z,36.60
2019-05-29T12:18:42.129Z,36.30
2019-05-29T12:21:11.702Z,36.40
2019-05-29T12:23:41.762Z,35.80
2019-05-29T12:26:21.730Z,35.60
2019-05-29T12:28:42.776Z,35.90
2019-05-29T12:31:12.537Z,35.50
2019-05-29T12:33:42.098Z,35.10
2019-05-29T12:36:12.051Z,34.50
2019-05-29T12:38:41.859Z,33.70
2019-05-29T12:41:11.414Z,33.70
2019-05-29T12:43:41.466Z,34.00
2019-05-29T12:46:11.407Z,33.00
2019-05-29T12:48:40.970Z,33.30
2019-05-29T12:51:10.610Z,33.20
2019-05-29T12:53:44.709Z,33.30
2019-05-29T12:56:14.539Z,33.50
2019-05-29T12:58:44.239Z,33.30
2019-05-29T13:01:14.007Z,32.30
2019-05-29T13:03:45.874Z,32.50
2019-05-29T13:06:15.110Z,32.50
2019-05-29T13:08:45.253Z,32.30
2019-05-29T13:11:14.863Z,32.20
2019-05-29T13:13:44.429Z,32.00
2019-05-29T13:16:14.246Z,31.50
2019-05-29T13:18:43.847Z,31.80
2019-05-29T13:21:13.419Z,31.70
2019-05-29T13:23:45.490Z,31.40
2019-05-29T13:26:14.571Z,31.60
2019-05-29T13:28:44.423Z,31.80
2019-05-29T13:31:14.922Z,32.00
2019-05-29T13:33:44.506Z,32.30
2019-05-29T13:36:14.195Z,33.00
2019-05-29T13:38:43.870Z,33.20
2019-05-29T13:41:13.455Z,33.30
2019-05-29T13:43:43.031Z,33.40
2019-05-29T13:46:12.881Z,33.60
2019-05-29T13:48:42.454Z,33.50
2019-05-29T13:51:12.318Z,33.60
2019-05-29T13:53:42.055Z,33.70
2019-05-29T13:56:12.572Z,33.50
2019-05-29T13:58:42.224Z,33.40
2019-05-29T14:01:12.039Z,33.20
2019-05-29T14:03:41.637Z,33.20
2019-05-29T14:06:11.438Z,33.00
2019-05-29T14:08:41.031Z,33.10
2019-05-29T14:11:10.833Z,33.10
2019-05-29T14:13:41.079Z,32.30
2019-05-29T14:16:10.819Z,32.20
2019-05-29T14:18:41.733Z,31.90
2019-05-29T14:21:11.319Z,31.70
2019-05-29T14:23:41.379Z,32.10
2019-05-29T14:26:11.157Z,32.10
2019-05-29T14:28:41.078Z,32.10
2019-05-29T14:31:12.086Z,32.30
2019-05-29T14:33:42.570Z,32.50
2019-05-29T14:36:12.139Z,32.50
2019-05-29T14:38:41.707Z,32.40
2019-05-29T14:41:12.000Z,32.50
2019-05-29T14:43:41.761Z,32.40
2019-05-29T14:46:12.149Z,32.20
2019-05-29T14:48:41.802Z,32.20
2019-05-29T14:51:12.664Z,32.10
2019-05-29T14:53:42.524Z,32.00
2019-05-29T14:56:12.699Z,31.30
2019-05-29T14:58:42.407Z,30.90
2019-05-29T15:01:13.247Z,30.60
2019-05-29T15:03:42.916Z,30.10
2019-05-29T15:06:13.911Z,29.60
2019-05-29T15:08:43.586Z,29.50
2019-05-29T15:11:14.114Z,29.20
2019-05-29T15:13:43.998Z,29.00
2019-05-29T15:16:14.799Z,29.20
2019-05-29T15:18:44.634Z,29.20
2019-05-29T15:21:15.253Z,29.30
2019-05-29T15:27:19.536Z,29.30
2019-05-29T15:31:03.445Z,29.20
2019-05-29T15:37:29.367Z,29.30
2019-05-29T15:40:03.595Z,29.50
2019-05-29T15:42:38.332Z,29.20
2019-05-29T15:45:22.607Z,29.30
2019-05-29T15:47:55.353Z,29.20
2019-05-29T15:50:31.872Z,29.60
2019-05-29T15:53:12.774Z,29.80
2019-05-29T15:56:25.815Z,29.90
2019-05-29T15:59:56.678Z,29.90
2019-05-29T16:01:38.532Z,30.00
2019-05-29T16:04:09.641Z,29.80
2019-05-29T16:06:39.534Z,29.60
2019-05-29T16:09:10.262Z,29.40
2019-05-29T16:11:39.859Z,29.40
2019-05-29T16:14:10.671Z,29.50
2019-05-29T16:16:40.241Z,29.50
2019-05-29T16:19:12.093Z,29.40
2019-05-29T16:21:42.232Z,29.00
2019-05-29T16:24:12.717Z,28.80
2019-05-29T16:26:42.626Z,28.80
2019-05-29T16:29:14.268Z,28.80
2019-05-29T16:31:44.808Z,28.90
2019-05-29T16:34:16.555Z,28.90
2019-05-29T16:36:46.082Z,29.00
2019-05-29T16:39:15.944Z,29.10
2019-05-29T16:41:45.642Z,29.20
2019-05-29T16:44:16.322Z,29.10
2019-05-29T16:46:46.330Z,29.20
2019-05-29T16:49:16.615Z,29.30
2019-05-29T16:51:46.478Z,29.20
2019-05-29T16:54:17.204Z,29.30
2019-05-29T16:57:08.809Z,29.30
2019-05-29T16:59:44.474Z,29.30
2019-05-29T17:02:15.496Z,29.50
2019-05-29T17:04:46.742Z,29.50
2019-05-29T17:07:16.290Z,29.50
2019-05-29T17:09:46.171Z,28.90
2019-05-29T17:12:18.177Z,28.80
2019-05-29T17:14:47.987Z,28.70
2019-05-29T17:17:18.631Z,28.70
2019-05-29T17:19:48.357Z,28.80
2019-05-29T17:22:18.855Z,29.10
2019-05-29T17:24:48.980Z,29.20
2019-05-29T17:27:21.003Z,29.20
2019-05-29T17:29:50.890Z,29.20
2019-05-29T17:32:21.133Z,29.00
2019-05-29T17:34:50.727Z,28.60
2019-05-29T17:37:21.057Z,28.20
2019-05-29T17:39:50.729Z,27.90
2019-05-29T17:42:20.369Z,27.60
2019-05-29T17:44:50.587Z,27.60
2019-05-29T17:47:21.567Z,27.60
2019-05-29T17:49:51.518Z,27.60
2019-05-29T17:52:21.829Z,27.60
2019-05-29T17:54:51.537Z,27.80
2019-05-29T17:57:26.913Z,27.80
2019-05-29T17:59:56.521Z,27.70
2019-05-29T18:02:26.407Z,27.70
2019-05-29T18:04:56.250Z,27.90
2019-05-29T18:07:49.742Z,28.00
2019-05-29T18:10:22.477Z,28.00
2019-05-29T18:12:52.431Z,28.20
2019-05-29T18:15:21.979Z,28.30
2019-05-29T18:17:51.878Z,28.40
2019-05-29T18:20:21.749Z,28.60
2019-05-29T18:22:51.443Z,28.70
2019-05-29T18:25:21.902Z,28.80
2019-05-29T18:27:51.511Z,29.00
2019-05-29T18:30:22.258Z,29.00
2019-05-29T18:32:52.009Z,29.10
2019-05-29T18:35:22.769Z,29.20
2019-05-29T18:38:26.528Z,29.30
2019-05-29T18:40:56.307Z,29.30
2019-05-29T18:43:31.145Z,29.40
2019-05-29T18:46:01.027Z,29.50
2019-05-29T18:48:32.539Z,29.60
2019-05-29T18:51:02.110Z,29.70
2019-05-29T18:53:32.997Z,29.70
2019-05-29T18:56:02.770Z,29.80
2019-05-29T18:58:32.722Z,29.90
2019-05-29T19:01:02.413Z,29.90
2019-05-29T19:03:32.630Z,30.00
2019-05-29T19:06:02.359Z,30.00
2019-05-29T19:08:32.806Z,30.00
2019-05-29T19:11:02.600Z,30.00
2019-05-29T19:13:32.578Z,30.20
2019-05-29T19:16:02.279Z,30.40
2019-05-29T19:18:32.389Z,30.40
2019-05-29T19:21:01.989Z,30.60
2019-05-29T19:23:32.963Z,30.70
2019-05-29T19:26:03.060Z,30.80
2019-05-29T19:28:32.948Z,31.00
2019-05-29T19:31:02.497Z,31.00
2019-05-29T19:33:33.511Z,31.20
2019-05-29T19:36:03.204Z,31.30
2019-05-29T19:38:34.063Z,31.40
2019-05-29T19:41:03.894Z,31.50
2019-05-29T19:43:34.481Z,31.70
2019-05-29T19:46:04.192Z,32.30
2019-05-29T19:48:35.115Z,32.80
2019-05-29T19:51:05.144Z,33.80
2019-05-29T19:53:35.671Z,33.30
2019-05-29T19:56:05.547Z,33.60
2019-05-29T19:58:36.553Z,34.00
2019-05-29T20:01:06.629Z,34.10
2019-05-29T20:03:36.671Z,34.60
2019-05-29T20:06:06.414Z,34.80
2019-05-29T20:08:38.158Z,35.00
2019-05-29T20:11:07.609Z,35.30
2019-05-29T20:13:38.055Z,35.60
2019-05-29T20:16:07.682Z,35.80
2019-05-29T20:18:38.373Z,35.90
2019-05-29T20:21:08.074Z,36.10
2019-05-29T20:23:38.580Z,36.30
2019-05-29T20:26:08.466Z,36.40
2019-05-29T20:28:38.457Z,36.70
2019-05-29T20:31:11.779Z,36.70
2019-05-29T20:33:39.549Z,37.00
2019-05-29T20:36:10.045Z,37.30
2019-05-29T20:38:39.570Z,37.50
2019-05-29T20:41:09.125Z,37.80
2019-05-29T20:43:39.736Z,38.00
2019-05-29T20:46:09.701Z,38.10
2019-05-29T20:48:39.760Z,38.20
2019-05-29T20:51:09.563Z,38.20
2019-05-29T20:53:40.315Z,38.30
2019-05-29T20:56:10.271Z,38.30
2019-05-29T21:01:32.223Z,38.30
2019-05-29T21:04:01.835Z,38.70
2019-05-29T21:06:32.435Z,38.90
2019-05-29T21:09:02.324Z,39.10
2019-05-29T21:11:33.339Z,39.10
2019-05-29T21:14:03.093Z,39.40
2019-05-29T21:16:33.680Z,39.40
2019-05-29T21:19:03.386Z,39.50
2019-05-29T21:21:34.112Z,39.70
2019-05-29T21:24:03.922Z,39.70
2019-05-29T21:26:34.980Z,39.80
2019-05-29T21:29:04.622Z,39.90
2019-05-29T21:31:35.336Z,40.00
2019-05-29T21:34:05.026Z,40.00
2019-05-29T21:36:35.916Z,40.10
2019-05-29T21:39:07.540Z,40.00
2019-05-29T21:41:38.312Z,39.80
2019-05-29T21:44:08.086Z,39.70
2019-05-29T21:46:38.851Z,39.60
2019-05-29T21:49:08.518Z,39.60
2019-05-29T21:51:39.364Z,39.80
2019-05-29T21:54:08.942Z,39.70
2019-05-29T21:56:39.490Z,39.80
2019-05-29T21:59:10.206Z,39.80
2019-05-29T22:01:39.998Z,39.80
2019-05-29T22:04:09.710Z,40.10
2019-05-29T22:06:40.462Z,40.30
2019-05-29T22:09:13.786Z,40.30
2019-05-29T22:12:15.551Z,40.30
2019-05-29T22:14:46.551Z,40.50
2019-05-29T22:17:16.166Z,40.50
2019-05-29T22:19:45.978Z,40.50
2019-05-29T22:22:15.649Z,40.40
2019-05-29T22:24:45.785Z,40.50
2019-05-29T22:27:15.639Z,40.60
2019-05-29T22:29:45.183Z,40.60
2019-05-29T22:32:14.711Z,40.70
2019-05-29T22:34:44.429Z,40.90
2019-05-29T22:37:14.382Z,40.90
2019-05-29T22:39:43.915Z,41.00
2019-05-29T22:42:14.434Z,41.00
2019-05-29T22:44:44.040Z,41.10
2019-05-29T22:47:13.623Z,41.30
2019-05-29T22:49:43.206Z,41.40
2019-05-29T22:52:13.034Z,41.50
2019-05-29T22:54:43.042Z,42.00
2019-05-29T22:57:12.659Z,41.50
2019-05-29T22:59:42.325Z,41.60
2019-05-29T23:02:12.185Z,42.10
2019-05-29T23:04:41.776Z,42.60
2019-05-29T23:07:12.282Z,42.40
2019-05-29T23:09:42.123Z,42.40
2019-05-29T23:12:11.974Z,42.40
2019-05-29T23:14:41.852Z,42.50
2019-05-29T23:17:11.931Z,42.60
2019-05-29T23:19:41.698Z,42.70
2019-05-29T23:22:11.245Z,42.80
2019-05-29T23:24:42.092Z,42.80
2019-05-29T23:27:11.884Z,42.90
2019-05-29T23:29:49.076Z,42.90
2019-05-29T23:32:13.069Z,42.90
2019-05-29T23:34:42.734Z,42.80
2019-05-29T23:37:13.849Z,42.80
2019-05-29T23:39:43.729Z,42.80
2019-05-29T23:42:13.349Z,42.90
2019-05-29T23:44:42.928Z,43.10
2019-05-29T23:47:13.302Z,43.20
2019-05-29T23:49:42.871Z,43.10
2019-05-29T23:52:12.458Z,43.10
2019-05-29T23:54:42.122Z,43.00
2019-05-29T23:57:20.555Z,43.00
